Loxahatchee, FL

8:08 AM EST on December 05, 2016 (GMT -0500)
Orange Blvd | | Change Station

Elev 59 ft 26.68 °N, 80.26 °W | Updated 17 seconds ago

Scattered Clouds
Scattered Clouds
71.1 °F
Feels Like 71.1 °F
N
1.0
Wind Variable Wind from SE

Today
High -- | Low -- °F
--% Chance of Precip.
Yesterday
High -- | Low -- °F
Precip. -- in
Pressure 30.04 in
Visibility 10.0 miles
Clouds Scattered Clouds 2200 ft
Scattered Clouds 25000 ft
Dew Point 70 °F
Humidity 98%
Rainfall 0.00 in
Snow Depth Not available.
6:55 AM 5:28 PM
Waxing Crescent, 31% visible
METAR KPBI 051253Z 15008KT 10SM SCT022 SCT250 25/22 A3004 RMK AO2 SLP170 T02500217
Pressure 30.04 in
Visibility 10.0 miles
Clouds Scattered Clouds 2200 ft
Scattered Clouds 25000 ft
Dew Point 70 °F
Humidity 98%
Rainfall 0.00 in
Snow Depth Not available.
6:55 AM 5:28 PM
Waxing Crescent, 31% visible
METAR KPBI 051253Z 15008KT 10SM SCT022 SCT250 25/22 A3004 RMK AO2 SLP170 T02500217

10-Day Weather Forecast

Almanac

Astronomy

Dec. 05, 2016 Rise Set
Actual Time
Civil Twilight
Nautical Twilight
Astronomical Twilight
Moon
Length of Visible Light
Length of Day
Tomorrow will be .
, % of the Moon is Illuminated

Today's Extremes

State Highs State Lows

Community

WunderPhotos

Upload Photos

1,955,780 photos uploaded!

WunderBlog® & News

Nearby

Air Quality

  Air Quality AQ Index Pollutant
Not available.

Snow Depth

Station Depth Elevation

Earthquake Activity

City Distance Mag. Time & Date
Minimum magnitude displayed is 2.5.

Coastal Water Temperatures

Place Temperature

Stations

Nearby Weather Stations

Station Location Temp. Windchill Dew Point Humidity Wind Precip. Elev Updated Type
                   

Watches & Warnings

There are currently no watches in effect.